createdAt,value
2023-02-16T00:01:55.175Z,69.03
2023-02-16T00:04:28.385Z,69.09
2023-02-16T00:06:56.690Z,70.25
2023-02-16T00:09:27.830Z,68.58
2023-02-16T00:12:13.392Z,67.78
2023-02-16T00:14:44.975Z,70.52
2023-02-16T00:17:14.364Z,70.65
2023-02-16T00:19:43.064Z,71.78
2023-02-16T00:22:20.076Z,71.37
2023-02-16T00:24:47.923Z,70.37
2023-02-16T00:27:18.681Z,69.69
2023-02-16T00:29:46.483Z,70.41
2023-02-16T00:32:16.972Z,69.94
2023-02-16T00:34:47.267Z,70.29
2023-02-16T00:37:15.341Z,69.98
2023-02-16T00:39:44.936Z,68.80
2023-02-16T00:42:15.417Z,68.57
2023-02-16T00:44:45.210Z,68.52
2023-02-16T00:47:20.381Z,68.34
2023-02-16T00:49:49.732Z,70.46
2023-02-16T00:52:29.334Z,69.60
2023-02-16T00:55:00.489Z,68.19
2023-02-16T00:57:29.078Z,69.97
2023-02-16T01:00:03.545Z,70.53
2023-02-16T01:02:34.335Z,70.38
2023-02-16T01:05:03.476Z,69.84
2023-02-16T01:07:48.754Z,68.78
2023-02-16T01:10:35.567Z,68.86
2023-02-16T01:13:06.021Z,68.35
2023-02-16T01:15:33.954Z,69.11
2023-02-16T01:18:03.224Z,69.82
2023-02-16T01:20:36.325Z,69.64
2023-02-16T01:23:07.509Z,69.28
2023-02-16T01:25:35.493Z,70.08
2023-02-16T01:28:03.375Z,69.04
2023-02-16T01:30:36.704Z,70.87
2023-02-16T01:33:08.196Z,71.94
2023-02-16T01:35:38.100Z,71.28
2023-02-16T01:38:07.783Z,69.81
2023-02-16T01:40:39.695Z,68.81
2023-02-16T01:43:15.940Z,69.82
2023-02-16T01:45:46.686Z,70.72
2023-02-16T01:48:21.996Z,68.90
2023-02-16T01:50:53.805Z,68.27
2023-02-16T01:53:27.162Z,65.97
2023-02-16T01:56:00.548Z,69.62
2023-02-16T01:58:35.667Z,69.54
2023-02-16T02:01:42.893Z,68.54
2023-02-16T02:04:39.027Z,68.21
2023-02-16T02:07:08.469Z,69.17
2023-02-16T02:09:41.813Z,69.52
2023-02-16T02:12:18.335Z,68.66
2023-02-16T02:14:46.979Z,69.16
2023-02-16T02:17:17.659Z,70.07
2023-02-16T02:19:55.625Z,69.85
2023-02-16T02:23:11.525Z,70.21
2023-02-16T02:29:25.805Z,66.98
2023-02-16T02:31:58.818Z,67.86
2023-02-16T02:34:35.476Z,68.95
2023-02-16T02:37:10.880Z,70.57
2023-02-16T02:39:44.715Z,70.91
2023-02-16T02:42:18.134Z,70.58
2023-02-16T02:44:51.850Z,70.19
2023-02-16T02:47:22.284Z,70.59
2023-02-16T02:49:52.056Z,71.55
2023-02-16T02:52:20.324Z,70.51
2023-02-16T02:55:07.953Z,69.68
2023-02-16T02:57:55.836Z,69.25
2023-02-16T03:00:44.093Z,68.59
2023-02-16T03:03:21.643Z,67.59
2023-02-16T03:05:58.106Z,68.26
2023-02-16T03:08:29.471Z,68.50
2023-02-16T03:11:20.701Z,68.84
2023-02-16T03:13:50.837Z,68.41
2023-02-16T03:16:24.070Z,67.43
2023-02-16T03:19:09.659Z,68.37
2023-02-16T03:21:57.747Z,68.93
2023-02-16T03:24:46.417Z,70.02
2023-02-16T03:27:36.336Z,67.81
2023-02-16T03:30:05.716Z,68.77
2023-02-16T03:32:36.450Z,69.97
2023-02-16T03:35:08.690Z,69.19
2023-02-16T03:37:39.283Z,68.19
2023-02-16T03:40:30.900Z,68.96
2023-02-16T03:43:00.319Z,69.62
2023-02-16T03:45:32.364Z,69.20
2023-02-16T03:48:02.927Z,70.04
2023-02-16T03:50:31.857Z,69.80
2023-02-16T03:53:09.063Z,69.62
2023-02-16T03:55:41.838Z,69.06
2023-02-16T03:58:11.168Z,69.30
2023-02-16T04:00:39.402Z,68.46
2023-02-16T04:03:12.307Z,69.56
2023-02-16T04:05:49.415Z,68.87
2023-02-16T04:08:23.516Z,70.36
2023-02-16T04:10:57.074Z,70.22
2023-02-16T04:13:30.064Z,69.27
2023-02-16T04:16:00.610Z,69.52
2023-02-16T04:18:31.075Z,69.08
2023-02-16T04:21:07.317Z,69.62
2023-02-16T04:23:35.127Z,70.19
2023-02-16T04:26:11.929Z,68.93
2023-02-16T04:28:39.798Z,68.62
2023-02-16T04:31:07.920Z,69.26
2023-02-16T04:33:38.085Z,69.92
2023-02-16T04:36:10.969Z,69.38
2023-02-16T04:38:41.410Z,68.54
2023-02-16T04:41:32.939Z,69.21
2023-02-16T04:44:01.900Z,70.03
2023-02-16T04:46:33.499Z,68.40
2023-02-16T04:49:05.937Z,68.91
2023-02-16T04:51:36.053Z,69.00
2023-02-16T04:54:03.927Z,69.47
2023-02-16T04:56:36.908Z,69.84
2023-02-16T04:59:08.562Z,69.57
2023-02-16T05:01:38.628Z,71.24
2023-02-16T05:04:13.194Z,69.95
2023-02-16T05:06:41.083Z,70.30
2023-02-16T05:09:11.536Z,70.28
2023-02-16T05:11:56.717Z,69.70
2023-02-16T05:14:45.102Z,68.90
2023-02-16T05:17:18.878Z,70.26
2023-02-16T05:19:49.565Z,69.63
2023-02-16T05:22:20.931Z,70.48
2023-02-16T05:24:53.297Z,69.30
2023-02-16T05:27:27.045Z,69.13
2023-02-16T05:29:57.644Z,68.33
2023-02-16T05:32:25.760Z,68.91
2023-02-16T05:34:55.374Z,69.16
2023-02-16T05:37:23.236Z,69.71
2023-02-16T05:39:52.777Z,70.41
2023-02-16T05:42:39.112Z,70.05
2023-02-16T05:45:12.384Z,69.84
2023-02-16T05:47:40.171Z,68.95
2023-02-16T05:50:10.695Z,68.98
2023-02-16T05:52:44.663Z,69.09
2023-02-16T05:55:12.833Z,70.06
2023-02-16T05:57:41.878Z,68.06
2023-02-16T06:00:10.997Z,67.57
2023-02-16T06:02:49.030Z,66.93
2023-02-16T06:05:18.284Z,68.07
2023-02-16T06:07:47.918Z,67.70
2023-02-16T06:10:16.384Z,67.73
2023-02-16T06:12:44.993Z,68.68
2023-02-16T06:15:15.739Z,67.30
2023-02-16T06:17:44.885Z,66.67
2023-02-16T06:20:13.524Z,66.20
2023-02-16T06:22:42.815Z,65.88
2023-02-16T06:25:11.467Z,67.18
2023-02-16T06:27:42.407Z,66.55
2023-02-16T06:30:19.796Z,66.91
2023-02-16T06:32:48.328Z,65.82
2023-02-16T06:35:16.363Z,65.61
2023-02-16T06:37:55.617Z,66.13
2023-02-16T06:40:23.693Z,67.00
2023-02-16T06:42:58.808Z,68.00
2023-02-16T06:45:26.679Z,66.99
2023-02-16T06:47:54.560Z,66.72
2023-02-16T06:50:24.372Z,66.53
2023-02-16T06:52:55.247Z,66.48
2023-02-16T06:55:27.994Z,68.24
2023-02-16T06:57:55.831Z,66.70
2023-02-16T07:00:23.815Z,65.99
2023-02-16T07:02:51.803Z,66.56
2023-02-16T07:05:19.726Z,67.40
2023-02-16T07:07:50.565Z,68.53
2023-02-16T07:10:20.580Z,69.09
2023-02-16T07:12:49.784Z,68.34
2023-02-16T07:15:17.808Z,68.13
2023-02-16T07:17:45.737Z,66.71
2023-02-16T07:20:15.820Z,65.03
2023-02-16T07:22:47.119Z,65.31
2023-02-16T07:25:21.632Z,65.37
2023-02-16T07:27:49.516Z,64.25
2023-02-16T07:30:18.948Z,64.76
2023-02-16T07:32:49.847Z,64.23
2023-02-16T07:35:18.422Z,63.03
2023-02-16T07:37:46.334Z,63.91
2023-02-16T07:40:16.834Z,64.18
2023-02-16T07:42:47.551Z,64.53
2023-02-16T07:45:17.328Z,62.67
2023-02-16T07:47:47.865Z,61.97
2023-02-16T07:50:19.891Z,60.70
2023-02-16T07:52:50.509Z,62.29
2023-02-16T07:55:18.582Z,63.52
2023-02-16T07:57:55.387Z,61.92
2023-02-16T08:00:23.616Z,63.44
2023-02-16T08:02:54.461Z,63.86
2023-02-16T08:05:25.881Z,64.05
2023-02-16T08:07:54.176Z,62.33
2023-02-16T08:10:27.121Z,60.96
2023-02-16T08:12:57.905Z,62.20
2023-02-16T08:15:29.159Z,60.76
2023-02-16T08:17:57.932Z,61.44
2023-02-16T08:20:48.273Z,59.34
2023-02-16T08:23:18.428Z,60.64
2023-02-16T08:25:49.001Z,62.36
2023-02-16T08:28:22.432Z,62.17
2023-02-16T08:30:53.451Z,64.03
2023-02-16T08:33:23.650Z,63.03
2023-02-16T08:35:52.258Z,63.36
2023-02-16T08:38:22.846Z,63.76
2023-02-16T08:40:52.878Z,64.85
2023-02-16T08:43:22.837Z,62.50
2023-02-16T08:45:53.509Z,62.83
2023-02-16T08:48:24.449Z,61.66
2023-02-16T08:50:57.240Z,62.21
2023-02-16T08:53:33.245Z,62.35
2023-02-16T08:56:11.094Z,62.80
2023-02-16T08:58:44.300Z,62.13
2023-02-16T09:01:12.838Z,61.36
2023-02-16T09:03:42.834Z,61.92
2023-02-16T09:06:23.981Z,62.37
2023-02-16T09:08:55.059Z,62.49
2023-02-16T09:11:26.214Z,62.24
2023-02-16T09:13:56.058Z,62.08
2023-02-16T09:16:27.863Z,63.27
2023-02-16T09:18:57.327Z,61.63
2023-02-16T09:21:28.337Z,61.04
2023-02-16T09:23:58.322Z,63.14
2023-02-16T09:26:26.924Z,61.17
2023-02-16T09:28:58.807Z,61.04
2023-02-16T09:31:31.167Z,61.46
2023-02-16T09:34:02.467Z,61.43
2023-02-16T09:36:31.115Z,59.77
2023-02-16T09:39:11.543Z,59.44
2023-02-16T09:41:59.149Z,60.19
2023-02-16T09:44:34.737Z,57.60
2023-02-16T09:47:06.250Z,57.81
2023-02-16T09:49:37.959Z,59.74
2023-02-16T09:52:11.532Z,58.10
2023-02-16T09:54:51.797Z,58.38
2023-02-16T09:57:36.969Z,58.00
2023-02-16T10:00:14.536Z,57.44
2023-02-16T10:02:49.019Z,56.09
2023-02-16T10:05:24.869Z,54.94
2023-02-16T10:08:06.455Z,56.29
2023-02-16T10:10:47.002Z,55.75
2023-02-16T10:13:26.273Z,57.46
2023-02-16T10:15:57.757Z,56.52
2023-02-16T10:18:33.465Z,55.42
2023-02-16T10:21:05.926Z,53.80
2023-02-16T10:23:42.197Z,54.01
2023-02-16T10:26:22.726Z,54.24
2023-02-16T10:28:54.988Z,53.48
2023-02-16T10:31:30.839Z,53.56
2023-02-16T10:34:08.070Z,53.88
2023-02-16T10:36:50.316Z,53.33
2023-02-16T10:39:23.916Z,53.50
2023-02-16T10:41:57.384Z,52.31
2023-02-16T10:44:30.414Z,51.35
2023-02-16T10:47:04.466Z,52.35
2023-02-16T10:49:33.739Z,51.09
2023-02-16T10:52:06.042Z,51.02
2023-02-16T10:54:36.312Z,51.13
2023-02-16T10:57:07.785Z,51.38
2023-02-16T10:59:42.655Z,50.51
2023-02-16T11:02:20.326Z,51.16
2023-02-16T11:04:50.159Z,51.49
2023-02-16T11:07:20.099Z,50.24
2023-02-16T11:09:51.178Z,50.32
2023-02-16T11:12:27.223Z,49.99
2023-02-16T11:14:57.377Z,49.49
2023-02-16T11:17:27.892Z,49.89
2023-02-16T11:20:00.775Z,49.63
2023-02-16T11:22:37.005Z,49.20
2023-02-16T11:25:28.197Z,48.00
2023-02-16T11:28:00.203Z,48.22
2023-02-16T11:30:35.619Z,47.67
2023-02-16T11:33:19.549Z,47.66
2023-02-16T11:35:49.466Z,48.80
2023-02-16T11:38:34.564Z,47.56
2023-02-16T11:41:08.436Z,46.72
2023-02-16T11:43:39.268Z,47.36
2023-02-16T11:46:21.019Z,47.17
2023-02-16T11:48:55.476Z,46.54
2023-02-16T11:51:35.106Z,46.35
2023-02-16T11:54:06.094Z,45.61
2023-02-16T11:56:37.692Z,45.48
2023-02-16T11:59:21.191Z,47.27
2023-02-16T12:02:01.312Z,45.16
2023-02-16T12:04:44.977Z,43.50
2023-02-16T12:07:23.131Z,44.28
2023-02-16T12:09:56.924Z,45.09
2023-02-16T12:12:34.493Z,44.46
2023-02-16T12:15:10.035Z,43.38
2023-02-16T12:17:49.148Z,45.01
2023-02-16T12:20:39.251Z,45.89
2023-02-16T12:23:22.842Z,44.03
2023-02-16T12:25:54.527Z,42.99
2023-02-16T12:28:27.751Z,42.64
2023-02-16T12:31:06.243Z,44.19
2023-02-16T12:33:43.564Z,43.53
2023-02-16T12:36:40.787Z,42.61
2023-02-16T12:39:19.720Z,42.02
2023-02-16T12:42:00.124Z,43.13
2023-02-16T12:44:34.349Z,42.95
2023-02-16T12:47:05.245Z,43.53
2023-02-16T12:49:40.975Z,44.60
2023-02-16T12:52:13.810Z,45.36
2023-02-16T12:54:45.923Z,45.88
2023-02-16T12:57:15.815Z,44.74
2023-02-16T12:59:49.922Z,44.27
2023-02-16T13:02:21.557Z,43.87
2023-02-16T13:04:52.101Z,43.93
2023-02-16T13:07:26.792Z,44.46
2023-02-16T13:10:05.838Z,43.62
2023-02-16T13:12:36.564Z,43.53
2023-02-16T13:15:12.409Z,44.12
2023-02-16T13:17:42.832Z,44.74
2023-02-16T13:20:16.697Z,44.26
2023-02-16T13:23:06.215Z,45.18
2023-02-16T13:26:00.146Z,45.92
2023-02-16T13:28:47.972Z,45.12
2023-02-16T13:31:27.706Z,45.78
2023-02-16T13:34:23.188Z,46.01
2023-02-16T13:36:58.158Z,44.81
2023-02-16T13:39:41.094Z,45.90
2023-02-16T13:42:36.763Z,46.57
2023-02-16T13:45:11.334Z,46.88
2023-02-16T13:47:42.632Z,47.64
2023-02-16T13:50:27.218Z,47.11
2023-02-16T13:52:57.623Z,45.52
2023-02-16T13:55:32.520Z,46.13
2023-02-16T13:58:14.021Z,44.99
2023-02-16T14:00:47.647Z,46.60
2023-02-16T14:03:38.013Z,47.11
2023-02-16T14:06:35.371Z,46.23
2023-02-16T14:09:36.939Z,46.50
2023-02-16T14:12:17.284Z,46.84
2023-02-16T14:14:57.288Z,47.04
2023-02-16T14:17:28.273Z,47.60
2023-02-16T14:20:01.092Z,48.32
2023-02-16T14:22:48.239Z,47.23
2023-02-16T14:25:38.852Z,47.69
2023-02-16T14:28:48.024Z,47.71
2023-02-16T14:31:18.871Z,47.89
2023-02-16T14:33:50.276Z,47.64
2023-02-16T14:36:24.345Z,47.93
2023-02-16T14:38:53.142Z,47.74
2023-02-16T14:41:32.928Z,46.90
2023-02-16T14:44:27.802Z,46.06
2023-02-16T14:47:08.189Z,45.16
2023-02-16T14:50:03.774Z,46.21
2023-02-16T14:53:07.735Z,44.90
2023-02-16T14:55:59.727Z,46.40
2023-02-16T14:58:31.934Z,45.86
2023-02-16T15:01:10.561Z,47.18
2023-02-16T15:03:46.535Z,47.00
2023-02-16T15:06:30.307Z,47.14
2023-02-16T15:09:02.329Z,46.47
2023-02-16T15:11:33.202Z,45.95
2023-02-16T15:14:08.337Z,45.47
2023-02-16T15:16:40.607Z,45.52
2023-02-16T15:19:13.514Z,46.96
2023-02-16T15:21:41.547Z,45.12
2023-02-16T15:24:26.889Z,45.12
2023-02-16T15:26:58.177Z,47.09
2023-02-16T15:29:27.785Z,46.22
2023-02-16T15:32:00.509Z,46.16
2023-02-16T15:34:33.932Z,45.65
2023-02-16T15:37:07.216Z,46.51
2023-02-16T15:39:49.753Z,47.00
2023-02-16T15:42:28.992Z,47.95
2023-02-16T15:44:59.287Z,48.04
2023-02-16T15:47:34.148Z,46.58
2023-02-16T15:50:13.389Z,46.18
2023-02-16T15:52:46.286Z,46.33
2023-02-16T15:55:17.375Z,46.90
2023-02-16T15:57:45.508Z,46.25
2023-02-16T16:00:23.532Z,47.22
2023-02-16T16:02:55.143Z,47.51
2023-02-16T16:05:26.277Z,48.95
2023-02-16T16:07:55.275Z,49.66
2023-02-16T16:10:30.232Z,50.31
2023-02-16T16:13:02.984Z,49.74
2023-02-16T16:15:38.037Z,49.16
2023-02-16T16:18:08.911Z,48.88
2023-02-16T16:20:38.493Z,48.97
2023-02-16T16:23:08.788Z,47.60
2023-02-16T16:25:46.119Z,47.21
2023-02-16T16:28:16.020Z,46.99
2023-02-16T16:30:46.932Z,46.98
2023-02-16T16:33:17.086Z,46.52
2023-02-16T16:35:47.810Z,46.26
2023-02-16T16:38:24.753Z,47.20
2023-02-16T16:40:54.262Z,47.15
2023-02-16T16:43:24.554Z,48.42
2023-02-16T16:45:58.730Z,47.63
2023-02-16T16:48:31.532Z,47.10
2023-02-16T16:51:11.345Z,47.18
2023-02-16T16:53:53.490Z,46.82
2023-02-16T16:56:22.195Z,46.76
2023-02-16T16:58:51.436Z,46.81
2023-02-16T17:01:29.831Z,46.67
2023-02-16T17:03:59.569Z,47.26
2023-02-16T17:06:27.973Z,46.60
2023-02-16T17:08:56.825Z,47.03
2023-02-16T17:11:27.725Z,47.23
2023-02-16T17:13:58.662Z,47.05
2023-02-16T17:16:35.414Z,47.00
2023-02-16T17:19:08.132Z,47.03
2023-02-16T17:21:45.134Z,46.94
2023-02-16T17:24:17.283Z,47.13
2023-02-16T17:26:45.428Z,46.99
2023-02-16T17:29:16.119Z,46.69
2023-02-16T17:31:49.478Z,46.87
2023-02-16T17:34:19.794Z,47.07
2023-02-16T17:36:47.794Z,47.62
2023-02-16T17:39:17.301Z,47.58
2023-02-16T17:41:47.416Z,47.42
2023-02-16T17:44:16.232Z,47.68
2023-02-16T17:46:44.541Z,47.92
2023-02-16T17:49:15.092Z,47.42
2023-02-16T17:51:48.281Z,47.94
2023-02-16T17:54:20.673Z,48.20
2023-02-16T17:56:50.167Z,48.12
2023-02-16T17:59:20.206Z,47.99
2023-02-16T18:01:50.536Z,47.99
2023-02-16T18:04:18.326Z,48.24
2023-02-16T18:06:51.268Z,48.67
2023-02-16T18:09:27.390Z,48.73
2023-02-16T18:11:55.448Z,48.32
2023-02-16T18:14:24.757Z,48.65
2023-02-16T18:16:55.623Z,48.71
2023-02-16T18:19:23.730Z,48.59
2023-02-16T18:21:56.385Z,48.66
2023-02-16T18:24:24.388Z,48.68
2023-02-16T18:26:52.259Z,48.58
2023-02-16T18:29:22.440Z,48.28
2023-02-16T18:31:53.429Z,48.50
2023-02-16T18:34:21.643Z,48.54
2023-02-16T18:36:51.181Z,48.98
2023-02-16T18:39:33.564Z,48.94
2023-02-16T18:42:01.372Z,49.37
2023-02-16T18:44:29.314Z,49.05
2023-02-16T18:46:57.322Z,49.97
2023-02-16T18:49:25.305Z,49.99
2023-02-16T18:51:53.324Z,50.79
2023-02-16T18:54:22.504Z,50.63
2023-02-16T18:56:50.397Z,51.69
2023-02-16T18:59:20.083Z,52.75
2023-02-16T19:01:47.954Z,52.44
2023-02-16T19:04:15.858Z,52.24
2023-02-16T19:06:44.914Z,50.78
2023-02-16T19:09:12.711Z,50.46
2023-02-16T19:11:50.746Z,50.45
2023-02-16T19:14:21.269Z,50.21
2023-02-16T19:16:49.486Z,50.82
2023-02-16T19:19:22.962Z,50.44
2023-02-16T19:21:50.870Z,51.03
2023-02-16T19:24:18.767Z,50.96
2023-02-16T19:26:48.017Z,51.36
2023-02-16T19:29:17.051Z,52.39
2023-02-16T19:31:47.649Z,51.59
2023-02-16T19:34:17.108Z,52.38
2023-02-16T19:36:45.336Z,52.33
2023-02-16T19:39:13.211Z,51.83
2023-02-16T19:41:43.202Z,53.54
2023-02-16T19:44:14.461Z,53.47
2023-02-16T19:46:49.787Z,52.04
2023-02-16T19:49:23.995Z,52.57
2023-02-16T19:51:52.578Z,53.83
2023-02-16T19:54:22.077Z,53.33
2023-02-16T19:56:49.896Z,53.64
2023-02-16T19:59:23.226Z,53.31
2023-02-16T20:01:51.280Z,54.48
2023-02-16T20:04:20.490Z,53.97
2023-02-16T20:06:48.934Z,55.20
2023-02-16T20:09:18.903Z,56.22
2023-02-16T20:11:47.005Z,56.14
2023-02-16T20:14:17.732Z,56.62
2023-02-16T20:16:49.576Z,56.73
2023-02-16T20:19:17.436Z,56.83
2023-02-16T20:21:46.375Z,57.03
2023-02-16T20:24:15.362Z,58.08
2023-02-16T20:26:49.019Z,56.44
2023-02-16T20:29:19.900Z,57.66
2023-02-16T20:31:56.109Z,57.49
2023-02-16T20:34:26.091Z,57.53
2023-02-16T20:36:55.378Z,56.67
2023-02-16T20:39:23.732Z,57.89
2023-02-16T20:41:58.685Z,57.32
2023-02-16T20:44:27.450Z,56.34
2023-02-16T20:46:56.837Z,56.04
2023-02-16T20:49:27.003Z,56.60
2023-02-16T20:51:57.976Z,54.62
2023-02-16T20:54:30.841Z,55.46
2023-02-16T20:56:58.689Z,54.97
2023-02-16T20:59:28.508Z,53.80
2023-02-16T21:02:00.301Z,55.45
2023-02-16T21:04:28.187Z,54.58
2023-02-16T21:07:03.962Z,54.53
2023-02-16T21:09:34.261Z,54.88
2023-02-16T21:12:02.125Z,54.48
2023-02-16T21:14:30.017Z,55.11
2023-02-16T21:17:02.535Z,54.91
2023-02-16T21:19:30.471Z,55.24
2023-02-16T21:21:58.437Z,55.11
2023-02-16T21:24:29.091Z,55.28
2023-02-16T21:27:07.980Z,54.94
2023-02-16T21:29:35.812Z,56.95
2023-02-16T21:32:14.081Z,57.06
2023-02-16T21:34:43.403Z,57.12
2023-02-16T21:37:11.724Z,56.57
2023-02-16T21:39:57.076Z,56.11
2023-02-16T21:42:30.554Z,57.45
2023-02-16T21:45:12.342Z,56.87
2023-02-16T21:47:59.763Z,57.47
2023-02-16T21:50:28.203Z,57.46
2023-02-16T21:53:00.017Z,59.73
2023-02-16T21:55:46.042Z,59.11
2023-02-16T21:58:14.018Z,59.17
2023-02-16T22:00:44.926Z,59.00
2023-02-16T22:03:14.484Z,59.54
2023-02-16T22:05:50.742Z,59.56
2023-02-16T22:08:18.998Z,60.20
2023-02-16T22:10:46.775Z,59.94
2023-02-16T22:13:20.513Z,59.61
2023-02-16T22:15:49.044Z,59.38
2023-02-16T22:18:18.321Z,60.66
2023-02-16T22:20:46.322Z,61.00
2023-02-16T22:25:58.802Z,61.10
2023-02-16T22:28:26.715Z,61.08
2023-02-16T22:30:54.632Z,60.93
2023-02-16T22:33:31.046Z,61.85
2023-02-16T22:35:59.172Z,61.92
2023-02-16T22:38:27.671Z,62.28
2023-02-16T22:40:55.584Z,62.60
2023-02-16T22:43:23.401Z,62.96
2023-02-16T22:45:57.360Z,62.38
2023-02-16T22:48:26.866Z,62.62
2023-02-16T22:51:03.185Z,62.40
2023-02-16T22:53:34.140Z,60.83
2023-02-16T22:56:02.084Z,63.06
2023-02-16T22:58:30.558Z,62.99
2023-02-16T23:01:01.183Z,62.91
2023-02-16T23:03:31.913Z,62.24
2023-02-16T23:05:59.864Z,62.67
2023-02-16T23:08:29.790Z,62.32
2023-02-16T23:11:06.667Z,62.61
2023-02-16T23:13:38.136Z,61.91
2023-02-16T23:16:08.152Z,62.99
2023-02-16T23:18:37.517Z,62.63
2023-02-16T23:21:17.446Z,61.00
2023-02-16T23:23:46.775Z,61.78
2023-02-16T23:26:15.073Z,63.40
2023-02-16T23:28:44.182Z,61.42
2023-02-16T23:31:13.499Z,62.51
2023-02-16T23:33:44.501Z,61.51
2023-02-16T23:36:17.735Z,61.23
2023-02-16T23:38:46.031Z,62.29
2023-02-16T23:41:15.574Z,61.70
2023-02-16T23:43:47.789Z,60.26
2023-02-16T23:46:15.687Z,61.39
2023-02-16T23:48:49.128Z,61.39
2023-02-16T23:51:18.158Z,60.19
2023-02-16T23:53:48.983Z,61.63
2023-02-16T23:56:29.732Z,60.00
2023-02-16T23:58:59.596Z,59.22
